createdAt,value
2016-09-28T00:00:06.463Z,1017.41
2016-09-28T00:01:06.396Z,1017.39
2016-09-28T00:02:06.353Z,1017.37
2016-09-28T00:03:06.328Z,1017.39
2016-09-28T00:04:06.657Z,1017.36
2016-09-28T00:05:06.285Z,1017.35
2016-09-28T00:06:06.241Z,1017.3
2016-09-28T00:07:06.292Z,1017.25
2016-09-28T00:08:06.203Z,1017.22
2016-09-28T00:09:06.239Z,1017.21
2016-09-28T00:10:06.183Z,1017.21
2016-09-28T00:11:06.108Z,1017.23
2016-09-28T00:12:06.111Z,1017.19
2016-09-28T00:13:06.067Z,1017.22
2016-09-28T00:14:06.033Z,1017.21
2016-09-28T00:15:06.012Z,1017.18
2016-09-28T00:16:05.986Z,1017.24
2016-09-28T00:17:05.950Z,1017.21
2016-09-28T00:18:05.936Z,1017.23
2016-09-28T00:19:05.905Z,1017.28
2016-09-28T00:21:05.850Z,1017.26
2016-09-28T00:22:05.824Z,1017.27
2016-09-28T00:23:05.786Z,1017.24
2016-09-28T00:24:05.792Z,1017.29
2016-09-28T00:25:05.753Z,1017.26
2016-09-28T00:26:05.736Z,1017.29
2016-09-28T00:27:05.696Z,1017.29
2016-09-28T00:28:05.702Z,1017.26
2016-09-28T00:30:05.649Z,1017.27
2016-09-28T00:31:05.575Z,1017.3
2016-09-28T00:32:05.558Z,1017.27
2016-09-28T00:33:05.553Z,1017.35
2016-09-28T00:34:05.506Z,1017.32
2016-09-28T00:35:05.475Z,1017.35
2016-09-28T00:36:05.503Z,1017.36
2016-09-28T00:37:05.422Z,1017.34
2016-09-28T00:38:05.446Z,1017.33
2016-09-28T00:39:05.377Z,1017.36
2016-09-28T00:40:05.352Z,1017.33
2016-09-28T00:41:05.367Z,1017.39
2016-09-28T00:43:05.274Z,1017.37
2016-09-28T00:44:05.254Z,1017.41
2016-09-28T00:45:05.212Z,1017.38
2016-09-28T00:46:05.381Z,1017.4
2016-09-28T00:47:05.168Z,1017.43
2016-09-28T00:48:05.127Z,1017.41
2016-09-28T00:49:05.157Z,1017.38
2016-09-28T00:50:05.099Z,1017.4
2016-09-28T00:51:05.051Z,1017.4
2016-09-28T00:52:05.494Z,1017.38
2016-09-28T00:53:05.013Z,1017.35
2016-09-28T00:54:04.972Z,1017.31
2016-09-28T00:55:04.940Z,1017.26
2016-09-28T00:56:05.440Z,1017.2
2016-09-28T00:57:04.890Z,1017.18
2016-09-28T00:58:04.872Z,1017.19
2016-09-28T00:59:04.841Z,1017.13
2016-09-28T01:00:04.819Z,1017.15
2016-09-28T01:01:04.788Z,1017.13
2016-09-28T01:02:04.767Z,1017.12
2016-09-28T01:03:04.761Z,1017.1
2016-09-28T01:04:04.709Z,1017.1
2016-09-28T01:05:04.678Z,1017.11
2016-09-28T01:06:04.674Z,1017.08
2016-09-28T01:07:04.623Z,1016.97
2016-09-28T01:08:04.599Z,1016.98
2016-09-28T01:09:04.616Z,1017
2016-09-28T01:10:04.697Z,1017.01
2016-09-28T01:11:04.525Z,1016.99
2016-09-28T01:12:04.512Z,1017.01
2016-09-28T01:13:04.470Z,1017.06
2016-09-28T01:14:04.441Z,1017.05
2016-09-28T01:15:04.480Z,1017.06
2016-09-28T01:16:04.387Z,1017.05
2016-09-28T01:17:04.362Z,1017.03
2016-09-28T01:18:04.414Z,1017.01
2016-09-28T01:19:04.300Z,1017.02
2016-09-28T01:20:04.275Z,1017.04
2016-09-28T01:21:04.260Z,1017.03
2016-09-28T01:22:04.234Z,1017.06
2016-09-28T01:23:04.263Z,1017.06
2016-09-28T01:24:04.166Z,1017.03
2016-09-28T01:25:04.142Z,1017.06
2016-09-28T01:26:04.120Z,1017.03
2016-09-28T01:28:04.067Z,1016.96
2016-09-28T01:29:04.038Z,1016.93
2016-09-28T01:30:04.011Z,1016.95
2016-09-28T01:31:04.044Z,1016.99
2016-09-28T01:32:03.967Z,1016.96
2016-09-28T01:33:03.928Z,1016.9
2016-09-28T01:34:03.911Z,1016.91
2016-09-28T01:35:03.878Z,1016.91
2016-09-28T01:36:04.359Z,1016.91
2016-09-28T01:37:03.824Z,1016.88
2016-09-28T01:38:03.798Z,1016.91
2016-09-28T01:39:03.768Z,1016.93
2016-09-28T01:40:03.753Z,1016.96
2016-09-28T01:41:03.756Z,1016.96
2016-09-28T01:42:03.692Z,1016.96
2016-09-28T01:43:03.668Z,1017.02
2016-09-28T01:44:03.628Z,1017.03
2016-09-28T01:45:04.063Z,1016.95
2016-09-28T01:46:03.591Z,1017.02
2016-09-28T01:47:03.552Z,1016.99
2016-09-28T01:48:03.541Z,1017.05
2016-09-28T01:49:03.595Z,1017.09
2016-09-28T01:50:03.477Z,1017.1
2016-09-28T01:51:03.484Z,1017.09
2016-09-28T01:52:03.416Z,1017.11
2016-09-28T01:53:03.395Z,1017.1
2016-09-28T01:54:03.413Z,1017.04
2016-09-28T01:55:03.339Z,1017.08
2016-09-28T01:56:03.322Z,1017.04
2016-09-28T01:57:03.291Z,1017.04
2016-09-28T01:58:03.254Z,1017
2016-09-28T01:59:03.226Z,1017.01
2016-09-28T02:00:03.206Z,1017.02
2016-09-28T02:01:03.178Z,1017.02
2016-09-28T02:02:03.147Z,1017.06
2016-09-28T02:03:03.121Z,1017.01
2016-09-28T02:04:03.092Z,1016.96
2016-09-28T02:05:03.066Z,1016.96
2016-09-28T02:06:03.040Z,1016.99
2016-09-28T02:07:03.015Z,1016.97
2016-09-28T02:08:02.984Z,1016.95
2016-09-28T02:09:03.107Z,1016.95
2016-09-28T02:10:02.944Z,1016.93
2016-09-28T02:11:02.911Z,1016.94
2016-09-28T02:12:02.885Z,1016.94
2016-09-28T02:13:02.853Z,1016.98
2016-09-28T02:14:02.828Z,1016.99
2016-09-28T02:15:02.810Z,1016.99
2016-09-28T02:16:02.804Z,1017.01
2016-09-28T02:17:02.744Z,1016.99
2016-09-28T02:19:02.701Z,1017.02
2016-09-28T02:20:02.702Z,1017.06
2016-09-28T02:21:02.646Z,1017.08
2016-09-28T02:22:02.714Z,1017.06
2016-09-28T02:23:02.593Z,1017.06
2016-09-28T02:24:02.590Z,1017.07
2016-09-28T02:25:02.535Z,1017.06
2016-09-28T02:26:02.548Z,1017.09
2016-09-28T02:27:02.485Z,1017.05
2016-09-28T02:28:02.816Z,1017.05
2016-09-28T02:29:02.431Z,1017.09
2016-09-28T02:30:02.402Z,1017.06
2016-09-28T02:31:02.383Z,1017.07
2016-09-28T02:32:02.850Z,1017.05
2016-09-28T02:34:02.296Z,1017
2016-09-28T02:36:02.262Z,1017.02
2016-09-28T02:37:02.225Z,1017.01
2016-09-28T02:38:02.237Z,1017.05
2016-09-28T02:39:02.159Z,1017.02
2016-09-28T02:40:02.164Z,1017.04
2016-09-28T02:41:02.107Z,1017.04
2016-09-28T02:42:02.082Z,1017.03
2016-09-28T02:43:02.215Z,1017.02
2016-09-28T02:44:02.026Z,1017.03
2016-09-28T02:45:02.001Z,1017.1
2016-09-28T02:47:01.965Z,1017.15
2016-09-28T02:49:01.892Z,1017.12
2016-09-28T02:50:01.864Z,1017.05
2016-09-28T02:51:01.838Z,1017.04
2016-09-28T02:52:01.809Z,1017.01
2016-09-28T02:53:01.801Z,1017.03
2016-09-28T02:54:01.762Z,1016.98
2016-09-28T02:55:01.730Z,1017.01
2016-09-28T02:56:01.704Z,1016.95
2016-09-28T02:57:01.798Z,1016.95
2016-09-28T02:58:01.655Z,1016.96
2016-09-28T02:59:01.674Z,1016.97
2016-09-28T03:00:01.645Z,1016.94
2016-09-28T03:01:01.577Z,1016.92
2016-09-28T03:02:01.548Z,1016.87
2016-09-28T03:03:01.522Z,1016.84
2016-09-28T03:04:01.493Z,1016.87
2016-09-28T03:05:01.481Z,1016.84
2016-09-28T03:06:01.489Z,1016.81
2016-09-28T03:07:01.414Z,1016.78
2016-09-28T03:08:01.396Z,1016.74
2016-09-28T03:09:01.363Z,1016.74
2016-09-28T03:10:01.343Z,1016.73
2016-09-28T03:11:01.362Z,1016.73
2016-09-28T03:12:01.284Z,1016.74
2016-09-28T03:13:01.261Z,1016.71
2016-09-28T03:14:01.228Z,1016.67
2016-09-28T03:16:01.233Z,1016.62
2016-09-28T03:17:01.157Z,1016.63
2016-09-28T03:18:01.149Z,1016.56
2016-09-28T03:19:01.098Z,1016.58
2016-09-28T03:20:01.070Z,1016.55
2016-09-28T03:21:01.047Z,1016.6
2016-09-28T03:23:00.990Z,1016.59
2016-09-28T03:24:00.972Z,1016.63
2016-09-28T03:25:00.942Z,1016.62
2016-09-28T03:27:00.885Z,1016.51
2016-09-28T03:28:00.850Z,1016.49
2016-09-28T03:29:00.820Z,1016.45
2016-09-28T03:30:00.804Z,1016.37
2016-09-28T03:31:00.765Z,1016.37
2016-09-28T03:32:00.740Z,1016.33
2016-09-28T03:33:00.719Z,1016.34
2016-09-28T03:34:00.702Z,1016.28
2016-09-28T03:35:00.687Z,1016.21
2016-09-28T03:36:00.691Z,1016.21
2016-09-28T03:37:00.621Z,1016.15
2016-09-28T03:38:00.582Z,1016.09
2016-09-28T03:39:00.555Z,1016.13
2016-09-28T03:41:00.502Z,1016.13
2016-09-28T03:42:00.477Z,1016.08
2016-09-28T03:43:00.453Z,1016.1
2016-09-28T03:44:00.414Z,1016.06
2016-09-28T03:45:00.434Z,1016.05
2016-09-28T03:46:00.384Z,1015.96
2016-09-28T03:47:00.401Z,1015.95
2016-09-28T03:48:00.361Z,1015.86
2016-09-28T03:49:00.303Z,1015.9
2016-09-28T03:50:00.311Z,1015.86
2016-09-28T03:51:00.286Z,1015.79
2016-09-28T03:52:00.260Z,1015.88
2016-09-28T03:53:00.253Z,1015.85
2016-09-28T03:54:00.232Z,1015.85
2016-09-28T03:55:00.209Z,1015.83
2016-09-28T03:56:00.147Z,1015.74
2016-09-28T03:57:00.119Z,1015.77
2016-09-28T03:58:00.053Z,1015.78
2016-09-28T03:59:00.018Z,1015.73
2016-09-28T04:00:00.002Z,1015.76
2016-09-28T04:00:59.978Z,1015.72
2016-09-28T04:01:59.931Z,1015.77
2016-09-28T04:02:59.902Z,1015.73
2016-09-28T04:03:59.885Z,1015.74
2016-09-28T04:05:00.315Z,1015.77
2016-09-28T04:05:59.835Z,1015.76
2016-09-28T04:06:59.797Z,1015.81
2016-09-28T04:08:59.741Z,1015.83
2016-09-28T04:09:59.716Z,1015.84
2016-09-28T04:10:59.712Z,1015.88
2016-09-28T04:11:59.666Z,1015.84
2016-09-28T04:12:59.650Z,1015.86
2016-09-28T04:13:59.604Z,1015.84
2016-09-28T04:14:59.582Z,1015.85
2016-09-28T04:15:59.563Z,1015.84
2016-09-28T04:16:59.568Z,1015.84
2016-09-28T04:17:59.498Z,1015.82
2016-09-28T04:18:59.520Z,1015.81
2016-09-28T04:19:59.442Z,1015.85
2016-09-28T04:20:59.414Z,1015.87
2016-09-28T04:21:59.398Z,1015.84
2016-09-28T04:22:59.383Z,1015.82
2016-09-28T04:23:59.389Z,1015.86
2016-09-28T04:24:59.338Z,1015.86
2016-09-28T04:25:59.284Z,1015.81
2016-09-28T04:26:59.334Z,1015.83
2016-09-28T04:27:59.250Z,1015.8
2016-09-28T04:28:59.257Z,1015.81
2016-09-28T04:30:59.156Z,1015.78
2016-09-28T04:31:59.158Z,1015.77
2016-09-28T04:32:59.095Z,1015.76
2016-09-28T04:33:59.075Z,1015.73
2016-09-28T04:34:59.050Z,1015.74
2016-09-28T04:35:59.016Z,1015.75
2016-09-28T04:36:58.988Z,1015.71
2016-09-28T04:37:58.963Z,1015.76
2016-09-28T04:38:58.935Z,1015.71
2016-09-28T04:39:58.923Z,1015.74
2016-09-28T04:40:58.883Z,1015.74
2016-09-28T04:41:58.856Z,1015.77
2016-09-28T04:42:59.032Z,1015.74
2016-09-28T04:43:58.807Z,1015.77
2016-09-28T04:44:58.778Z,1015.78
2016-09-28T04:45:58.765Z,1015.73
2016-09-28T04:46:59.016Z,1015.76
2016-09-28T04:47:58.690Z,1015.75
2016-09-28T04:48:58.667Z,1015.74
2016-09-28T04:49:58.696Z,1015.73
2016-09-28T04:50:58.614Z,1015.73
2016-09-28T04:52:58.565Z,1015.75
2016-09-28T04:54:58.521Z,1015.71
2016-09-28T04:55:58.486Z,1015.69
2016-09-28T04:56:58.453Z,1015.65
2016-09-28T04:57:58.513Z,1015.68
2016-09-28T04:58:58.396Z,1015.7
2016-09-28T04:59:58.377Z,1015.66
2016-09-28T05:00:58.555Z,1015.7
2016-09-28T05:01:58.324Z,1015.68
2016-09-28T05:02:58.332Z,1015.72
2016-09-28T05:03:58.265Z,1015.75
2016-09-28T05:04:58.249Z,1015.79
2016-09-28T05:05:58.243Z,1015.78
2016-09-28T05:06:58.217Z,1015.81
2016-09-28T05:07:58.166Z,1015.85
2016-09-28T05:08:58.209Z,1015.86
2016-09-28T05:09:58.116Z,1015.83
2016-09-28T05:10:58.088Z,1015.87
2016-09-28T05:11:58.048Z,1015.85
2016-09-28T05:12:58.023Z,1015.85
2016-09-28T05:13:57.987Z,1015.87
2016-09-28T05:14:57.975Z,1015.89
2016-09-28T05:15:57.940Z,1015.87
2016-09-28T05:16:57.924Z,1015.91
2016-09-28T05:17:57.942Z,1015.86
2016-09-28T05:18:57.887Z,1015.95
2016-09-28T05:19:57.846Z,1015.9
2016-09-28T05:20:57.810Z,1015.93
2016-09-28T05:21:57.780Z,1015.92
2016-09-28T05:22:57.752Z,1016
2016-09-28T05:23:57.723Z,1015.98
2016-09-28T05:24:57.707Z,1015.96
2016-09-28T05:25:57.682Z,1015.99
2016-09-28T05:26:57.757Z,1016.03
2016-09-28T05:27:57.634Z,1016.09
2016-09-28T05:28:57.600Z,1016.07
2016-09-28T05:29:57.569Z,1016.09
2016-09-28T05:31:57.523Z,1016.13
2016-09-28T05:32:57.489Z,1016.1
2016-09-28T05:33:57.465Z,1016.16
2016-09-28T05:34:57.840Z,1016.08
2016-09-28T05:35:57.401Z,1016.07
2016-09-28T05:36:57.401Z,1016.03
2016-09-28T05:37:57.347Z,1016.05
2016-09-28T05:38:57.341Z,1016.04
2016-09-28T05:39:57.305Z,1016.03
2016-09-28T05:40:57.523Z,1016.11
2016-09-28T05:41:57.239Z,1016.15
2016-09-28T05:42:57.209Z,1016.17
2016-09-28T05:43:57.188Z,1016.18
2016-09-28T05:45:57.131Z,1016.26
2016-09-28T05:49:37.476Z,1016.37
2016-09-28T05:50:37.766Z,1016.35
2016-09-28T05:51:37.398Z,1016.34
2016-09-28T05:52:37.726Z,1016.31
2016-09-28T05:53:37.356Z,1016.34
2016-09-28T05:54:37.323Z,1016.25
2016-09-28T05:55:37.312Z,1016.3
2016-09-28T05:56:37.271Z,1016.28
2016-09-28T05:57:37.246Z,1016.2
2016-09-28T05:58:37.318Z,1016.23
2016-09-28T05:59:37.190Z,1016.26
2016-09-28T06:00:37.202Z,1016.21
2016-09-28T06:02:37.378Z,1016.23
2016-09-28T06:03:37.165Z,1016.2
2016-09-28T06:04:37.055Z,1016.25
2016-09-28T06:05:37.023Z,1016.27
2016-09-28T06:06:37.003Z,1016.28
2016-09-28T06:07:36.979Z,1016.36
2016-09-28T06:08:36.950Z,1016.3
2016-09-28T06:09:36.926Z,1016.27
2016-09-28T06:10:36.902Z,1016.31
2016-09-28T06:11:36.919Z,1016.23
2016-09-28T06:12:36.840Z,1016.23
2016-09-28T06:13:36.820Z,1016.23
2016-09-28T06:14:36.789Z,1016.23
2016-09-28T06:15:36.772Z,1016.27
2016-09-28T06:16:36.728Z,1016.25
2016-09-28T06:17:36.716Z,1016.25
2016-09-28T06:18:36.731Z,1016.19
2016-09-28T06:19:36.648Z,1016.15
2016-09-28T06:20:36.627Z,1016.19
2016-09-28T06:21:36.674Z,1016.13
2016-09-28T06:22:36.576Z,1016.17
2016-09-28T06:23:36.560Z,1016.19
2016-09-28T06:24:36.515Z,1016.19
2016-09-28T06:25:36.511Z,1016.19
2016-09-28T06:26:36.463Z,1016.2
2016-09-28T06:27:36.463Z,1016.24
2016-09-28T06:29:36.388Z,1016.33
2016-09-28T06:30:36.376Z,1016.33
2016-09-28T06:31:36.348Z,1016.35
2016-09-28T06:32:36.323Z,1016.33
2016-09-28T06:33:36.338Z,1016.37
2016-09-28T06:34:36.338Z,1016.44
2016-09-28T06:35:36.240Z,1016.43
2016-09-28T06:36:36.223Z,1016.39
2016-09-28T06:37:36.176Z,1016.44
2016-09-28T06:38:36.159Z,1016.36
2016-09-28T06:39:36.127Z,1016.31
2016-09-28T06:40:36.150Z,1016.28
2016-09-28T06:41:36.065Z,1016.25
2016-09-28T06:42:36.033Z,1016.29
2016-09-28T06:43:36.015Z,1016.3
2016-09-28T06:44:36.017Z,1016.34
2016-09-28T06:45:36.002Z,1016.34
2016-09-28T06:46:35.942Z,1016.29
2016-09-28T06:47:35.934Z,1016.29
2016-09-28T06:48:35.884Z,1016.3
2016-09-28T06:49:35.849Z,1016.35
2016-09-28T06:50:35.824Z,1016.33
2016-09-28T06:51:35.822Z,1016.34
2016-09-28T06:52:35.778Z,1016.36
2016-09-28T06:53:35.807Z,1016.39
2016-09-28T06:54:35.722Z,1016.43
2016-09-28T06:55:35.690Z,1016.49
2016-09-28T06:56:35.663Z,1016.44
2016-09-28T06:57:35.649Z,1016.4
2016-09-28T06:58:35.643Z,1016.36
2016-09-28T06:59:35.602Z,1016.38
2016-09-28T07:00:35.571Z,1016.34
2016-09-28T07:01:35.612Z,1016.33
2016-09-28T07:02:35.511Z,1016.31
2016-09-28T07:03:35.532Z,1016.34
2016-09-28T07:04:35.458Z,1016.3
2016-09-28T07:05:35.467Z,1016.33
2016-09-28T07:06:35.401Z,1016.38
2016-09-28T07:07:35.426Z,1016.35
2016-09-28T07:08:35.386Z,1016.38
2016-09-28T07:09:35.315Z,1016.33
2016-09-28T07:10:35.503Z,1016.4
2016-09-28T07:11:35.467Z,1016.44
2016-09-28T07:12:35.242Z,1016.46
2016-09-28T07:16:35.201Z,1016.64
2016-09-28T07:17:35.105Z,1016.68
2016-09-28T07:19:35.146Z,1016.66
2016-09-28T07:20:35.105Z,1016.69
2016-09-28T07:21:35.107Z,1016.76
2016-09-28T07:22:35.282Z,1016.7
2016-09-28T07:23:34.948Z,1016.75
2016-09-28T07:24:34.906Z,1016.82
2016-09-28T07:25:34.911Z,1016.79
2016-09-28T07:27:34.841Z,1016.83
2016-09-28T07:29:34.784Z,1016.9
2016-09-28T07:30:34.751Z,1016.89
2016-09-28T07:31:34.835Z,1016.91
2016-09-28T07:32:34.726Z,1016.89
2016-09-28T07:33:34.702Z,1016.99
2016-09-28T07:34:34.643Z,1016.89
2016-09-28T07:35:34.705Z,1017
2016-09-28T07:36:34.633Z,1017.01
2016-09-28T07:37:34.603Z,1017.02
2016-09-28T07:42:20.763Z,1017.06
2016-09-28T07:43:20.729Z,1017.1
2016-09-28T07:44:20.693Z,1017.04
2016-09-28T07:45:20.678Z,1017.06
2016-09-28T07:46:20.655Z,1017.08
2016-09-28T07:47:20.613Z,1017.14
2016-09-28T07:48:20.588Z,1017.08
2016-09-28T07:49:20.571Z,1017.15
2016-09-28T07:50:20.530Z,1017.09
2016-09-28T07:51:20.519Z,1017.1
2016-09-28T07:52:20.490Z,1017.1
2016-09-28T07:53:20.451Z,1017.12
2016-09-28T07:55:20.402Z,1017.05
2016-09-28T07:56:20.382Z,1016.95
2016-09-28T07:57:20.341Z,1017
2016-09-28T07:58:20.323Z,1016.85
2016-09-28T07:59:20.302Z,1016.84
2016-09-28T08:00:20.292Z,1016.84
2016-09-28T08:01:20.240Z,1016.81
2016-09-28T08:02:20.219Z,1016.82
2016-09-28T08:03:20.189Z,1016.79
2016-09-28T08:04:20.197Z,1016.78
2016-09-28T08:05:20.133Z,1016.78
2016-09-28T08:06:20.138Z,1016.8
2016-09-28T08:07:20.076Z,1016.84
2016-09-28T08:08:20.046Z,1016.78
2016-09-28T08:09:20.041Z,1016.76
2016-09-28T08:10:20.009Z,1016.78
2016-09-28T08:11:19.972Z,1016.82
2016-09-28T08:12:19.943Z,1016.79
2016-09-28T08:13:19.958Z,1016.77
2016-09-28T08:14:19.987Z,1016.71
2016-09-28T08:15:19.860Z,1016.73
2016-09-28T08:16:19.839Z,1016.77
2016-09-28T08:17:19.826Z,1016.69
2016-09-28T08:18:19.777Z,1016.74
2016-09-28T08:19:19.756Z,1016.74
2016-09-28T08:20:19.733Z,1016.77
2016-09-28T08:21:19.710Z,1016.75
2016-09-28T08:22:19.679Z,1016.81
2016-09-28T08:23:19.663Z,1016.77
2016-09-28T08:24:19.620Z,1016.78
2016-09-28T08:25:19.596Z,1016.8
2016-09-28T08:26:19.569Z,1016.81
2016-09-28T08:27:19.540Z,1016.81
2016-09-28T08:28:19.514Z,1016.86
2016-09-28T08:29:19.481Z,1016.92
2016-09-28T08:30:19.476Z,1016.85
2016-09-28T08:31:19.442Z,1016.93
2016-09-28T08:32:19.440Z,1016.97
2016-09-28T08:33:19.381Z,1016.9
2016-09-28T08:34:19.360Z,1017.02
2016-09-28T08:35:19.327Z,1016.98
2016-09-28T08:36:19.301Z,1017.03
2016-09-28T08:37:19.391Z,1017.07
2016-09-28T08:38:19.246Z,1017.1
2016-09-28T08:39:19.229Z,1017.09
2016-09-28T08:40:19.194Z,1017.11
2016-09-28T08:41:19.170Z,1017.13
2016-09-28T08:42:19.148Z,1017.12
2016-09-28T08:43:19.414Z,1017.11
2016-09-28T08:44:19.086Z,1017.1
2016-09-28T08:45:19.110Z,1017.09
2016-09-28T08:46:19.044Z,1017.04
2016-09-28T08:47:19.017Z,1017.01
2016-09-28T08:48:19.016Z,1017.12
2016-09-28T08:49:18.991Z,1017.12
2016-09-28T08:50:18.934Z,1017.11
2016-09-28T08:51:18.920Z,1017.15
2016-09-28T08:52:18.887Z,1017.1
2016-09-28T08:53:18.854Z,1017.1
2016-09-28T08:54:18.824Z,1017.14
2016-09-28T08:55:18.796Z,1017.17
2016-09-28T08:56:18.768Z,1017.22
2016-09-28T08:57:18.757Z,1017.23
2016-09-28T08:58:18.734Z,1017.23
2016-09-28T08:59:18.746Z,1017.22
2016-09-28T09:00:19.117Z,1017.27
2016-09-28T09:01:18.638Z,1017.26
2016-09-28T09:02:18.618Z,1017.27
2016-09-28T09:03:18.583Z,1017.29
2016-09-28T09:04:18.574Z,1017.24
2016-09-28T09:05:18.538Z,1017.24
2016-09-28T09:06:18.501Z,1017.28
2016-09-28T09:07:18.479Z,1017.24
2016-09-28T09:08:18.480Z,1017.2
2016-09-28T09:09:18.426Z,1017.23
2016-09-28T09:10:18.398Z,1017.22
2016-09-28T09:11:18.371Z,1017.16
2016-09-28T09:12:18.362Z,1017.15
2016-09-28T09:13:18.317Z,1017.21
2016-09-28T09:14:18.293Z,1017.16
2016-09-28T09:15:18.273Z,1017.09
2016-09-28T09:16:18.358Z,1017.13
2016-09-28T09:17:18.233Z,1017.09
2016-09-28T09:18:18.198Z,1017.13
2016-09-28T09:19:18.167Z,1017.19
2016-09-28T09:20:18.144Z,1017.19
2016-09-28T09:21:18.112Z,1017.18
2016-09-28T09:22:18.104Z,1017.22
2016-09-28T09:23:18.102Z,1017.19
2016-09-28T09:24:18.038Z,1017.22
2016-09-28T09:25:18.034Z,1017.2
2016-09-28T09:26:17.988Z,1017.21
2016-09-28T09:27:17.952Z,1017.2
2016-09-28T09:28:17.930Z,1017.2
2016-09-28T09:29:17.925Z,1017.17
2016-09-28T09:30:17.872Z,1017.16
2016-09-28T09:31:17.949Z,1017.11
2016-09-28T09:32:17.820Z,1017.12
2016-09-28T09:33:17.800Z,1017.2
2016-09-28T09:34:17.790Z,1017.1
2016-09-28T09:35:17.753Z,1017.11
2016-09-28T09:36:17.739Z,1017.14
2016-09-28T09:37:17.687Z,1017.12
2016-09-28T09:38:17.666Z,1017.15
2016-09-28T09:39:17.633Z,1017.12
2016-09-28T09:40:17.637Z,1017.07
2016-09-28T09:41:17.661Z,1017.03
2016-09-28T09:42:17.574Z,1016.94
2016-09-28T09:43:17.528Z,1016.9
2016-09-28T09:44:17.505Z,1016.88
2016-09-28T09:45:17.484Z,1016.85
2016-09-28T09:46:17.458Z,1016.83
2016-09-28T09:47:17.434Z,1016.82
2016-09-28T09:48:17.400Z,1016.86
2016-09-28T09:49:17.388Z,1016.86
2016-09-28T09:50:17.361Z,1016.89
2016-09-28T09:51:17.644Z,1016.92
2016-09-28T09:52:17.460Z,1016.88
2016-09-28T09:53:17.600Z,1016.93
2016-09-28T09:54:17.500Z,1016.98
2016-09-28T09:55:17.392Z,1016.94
2016-09-28T09:56:17.255Z,1016.94
2016-09-28T09:57:17.324Z,1016.91
2016-09-28T09:58:17.158Z,1016.88
2016-09-28T09:59:17.125Z,1016.83
2016-09-28T10:01:17.062Z,1016.75
2016-09-28T10:03:17.004Z,1016.81
2016-09-28T10:04:16.979Z,1016.83
2016-09-28T10:05:16.960Z,1016.82
2016-09-28T10:06:16.922Z,1016.79
2016-09-28T10:07:16.897Z,1016.81
2016-09-28T10:08:16.924Z,1016.77
2016-09-28T10:09:16.845Z,1016.8
2016-09-28T10:10:16.842Z,1016.8
2016-09-28T10:11:16.804Z,1016.79
2016-09-28T10:12:16.791Z,1016.82
2016-09-28T10:13:16.737Z,1016.82
2016-09-28T10:14:16.732Z,1016.79
2016-09-28T10:15:16.697Z,1016.78
2016-09-28T10:16:16.681Z,1016.73
2016-09-28T10:17:16.637Z,1016.71
2016-09-28T10:18:16.616Z,1016.73
2016-09-28T10:19:16.604Z,1016.68
2016-09-28T10:20:16.572Z,1016.69
2016-09-28T10:21:16.533Z,1016.69
2016-09-28T10:22:16.500Z,1016.76
2016-09-28T10:23:16.479Z,1016.78
2016-09-28T10:24:16.450Z,1016.71
2016-09-28T10:25:16.541Z,1016.73
2016-09-28T10:26:16.422Z,1016.7
2016-09-28T10:27:16.389Z,1016.66
2016-09-28T10:28:16.348Z,1016.63
2016-09-28T10:29:16.331Z,1016.66
2016-09-28T10:30:16.292Z,1016.6
2016-09-28T10:31:16.402Z,1016.62
2016-09-28T10:32:16.251Z,1016.65
2016-09-28T10:33:16.215Z,1016.67
2016-09-28T10:34:16.195Z,1016.66
2016-09-28T10:35:16.164Z,1016.71
2016-09-28T10:36:16.155Z,1016.61
2016-09-28T10:37:16.149Z,1016.58
2016-09-28T10:38:16.176Z,1016.55
2016-09-28T10:42:02.419Z,1016.61
2016-09-28T10:43:02.332Z,1016.6
2016-09-28T10:46:02.473Z,1016.74
2016-09-28T10:47:02.243Z,1016.68
2016-09-28T10:48:02.270Z,1016.72
2016-09-28T10:49:02.194Z,1016.78
2016-09-28T10:50:02.253Z,1016.74
2016-09-28T10:51:02.204Z,1016.74
2016-09-28T10:52:02.138Z,1016.77
2016-09-28T10:53:02.139Z,1016.78
2016-09-28T10:54:02.416Z,1016.83
2016-09-28T10:55:02.071Z,1016.79
2016-09-28T10:56:02.012Z,1016.76
2016-09-28T10:57:02.007Z,1016.78
2016-09-28T10:58:01.944Z,1016.79
2016-09-28T10:59:01.925Z,1016.78
2016-09-28T11:00:01.928Z,1016.82
2016-09-28T11:01:01.899Z,1016.82
2016-09-28T11:02:01.875Z,1016.82
2016-09-28T11:03:01.818Z,1016.75
2016-09-28T11:04:01.812Z,1016.77
2016-09-28T11:05:01.875Z,1016.65
2016-09-28T11:06:01.743Z,1016.72
2016-09-28T11:07:01.712Z,1016.69
2016-09-28T11:08:01.680Z,1016.74
2016-09-28T11:09:01.660Z,1016.76
2016-09-28T11:10:01.679Z,1016.71
2016-09-28T11:12:01.583Z,1016.74
2016-09-28T11:13:01.628Z,1016.76
2016-09-28T11:14:01.526Z,1016.62
2016-09-28T11:15:01.597Z,1016.61
2016-09-28T11:16:01.507Z,1016.68
2016-09-28T11:17:01.611Z,1016.56
2016-09-28T11:18:01.432Z,1016.52
2016-09-28T11:19:01.425Z,1016.49
2016-09-28T11:20:01.484Z,1016.52
2016-09-28T11:21:01.346Z,1016.55
2016-09-28T11:22:01.373Z,1016.48
2016-09-28T11:23:01.408Z,1016.44
2016-09-28T11:24:01.304Z,1016.48
2016-09-28T11:25:01.358Z,1016.51
2016-09-28T11:26:01.223Z,1016.49
2016-09-28T11:28:01.164Z,1016.48
2016-09-28T11:30:01.164Z,1016.53
2016-09-28T11:31:01.104Z,1016.49
2016-09-28T11:32:01.076Z,1016.42
2016-09-28T11:33:01.122Z,1016.44
2016-09-28T11:34:01.035Z,1016.45
2016-09-28T11:37:24.134Z,1016.41
2016-09-28T11:38:24.073Z,1016.4
2016-09-28T11:39:24.106Z,1016.37
2016-09-28T11:40:24.064Z,1016.37
2016-09-28T11:41:24.112Z,1016.32
2016-09-28T11:42:24.002Z,1016.31
2016-09-28T11:43:23.994Z,1016.32
2016-09-28T11:44:23.930Z,1016.34
2016-09-28T11:45:23.898Z,1016.37
2016-09-28T11:46:23.993Z,1016.36
2016-09-28T11:47:23.916Z,1016.35
2016-09-28T11:48:23.832Z,1016.4
2016-09-28T11:50:23.957Z,1016.35
2016-09-28T11:51:23.822Z,1016.22
2016-09-28T11:52:23.735Z,1016.2
2016-09-28T11:53:23.697Z,1016.21
2016-09-28T11:54:23.663Z,1016.2
2016-09-28T11:55:23.670Z,1016.25
2016-09-28T11:56:23.707Z,1016.18
2016-09-28T11:57:23.618Z,1016.12
2016-09-28T11:58:23.615Z,1016.13
2016-09-28T11:59:23.533Z,1016.14
2016-09-28T12:00:23.785Z,1016.1
2016-09-28T12:01:23.654Z,1016.16
2016-09-28T12:02:23.462Z,1016.12
2016-09-28T12:03:25.861Z,1016.19
2016-09-28T12:04:23.409Z,1016.09
2016-09-28T12:06:23.354Z,1016.05
2016-09-28T12:07:23.376Z,1016.08
2016-09-28T12:08:23.308Z,1016.11
2016-09-28T12:09:23.297Z,1016.06
2016-09-28T12:10:23.252Z,1016.1
2016-09-28T12:11:23.336Z,1016.12
2016-09-28T12:12:23.203Z,1016.13
2016-09-28T12:13:23.194Z,1016.16
2016-09-28T12:14:23.145Z,1016.18
2016-09-28T12:15:23.253Z,1016.16
2016-09-28T12:16:23.129Z,1016.14
2016-09-28T12:17:23.088Z,1016.14
2016-09-28T12:18:23.403Z,1016.21
2016-09-28T12:20:23.041Z,1016.22
2016-09-28T12:21:23.830Z,1016.18
2016-09-28T12:22:22.985Z,1016.14
2016-09-28T12:23:22.939Z,1016.13
2016-09-28T12:24:22.962Z,1016.08
2016-09-28T12:25:22.889Z,1016.08
2016-09-28T12:26:22.882Z,1016.12
2016-09-28T12:27:22.852Z,1016.12
2016-09-28T12:28:22.799Z,1016.08
2016-09-28T12:29:22.792Z,1016.07
2016-09-28T12:30:22.761Z,1016.08
2016-09-28T12:32:45.871Z,1016.12
2016-09-28T12:33:45.982Z,1016.05
2016-09-28T12:34:45.851Z,1016.06
2016-09-28T12:37:45.735Z,1016.07
2016-09-28T12:40:45.772Z,1016.05
2016-09-28T12:41:46.792Z,1016.01
2016-09-28T12:42:45.785Z,1016.08
2016-09-28T12:43:45.675Z,1015.98
2016-09-28T12:44:45.616Z,1016.03
2016-09-28T12:49:33.082Z,1015.97
2016-09-28T12:51:38.165Z,1015.9
2016-09-28T12:52:34.899Z,1015.93
2016-09-28T12:53:34.887Z,1015.96
2016-09-28T12:54:34.851Z,1015.86
2016-09-28T12:55:34.811Z,1015.86
2016-09-28T12:56:34.792Z,1015.93
2016-09-28T12:57:34.808Z,1015.88
2016-09-28T12:58:34.755Z,1015.84
2016-09-28T12:59:34.725Z,1015.83
2016-09-28T13:00:34.688Z,1015.83
2016-09-28T13:01:34.666Z,1015.86
2016-09-28T13:02:34.639Z,1015.76
2016-09-28T13:03:34.618Z,1015.79
2016-09-28T13:04:34.592Z,1015.77
2016-09-28T13:05:34.640Z,1015.75
2016-09-28T13:06:34.841Z,1015.77
2016-09-28T13:08:34.554Z,1015.77